createdAt,value
2022-11-05T00:00:30.721Z,17.70
2022-11-05T00:05:47.933Z,14.77
2022-11-05T00:10:53.006Z,13.37
2022-11-05T00:16:12.939Z,11.33
2022-11-05T00:21:29.919Z,13.37
2022-11-05T00:26:34.683Z,15.20
2022-11-05T00:31:42.116Z,14.30
2022-11-05T00:36:46.898Z,10.47
2022-11-05T00:42:11.990Z,12.67
2022-11-05T00:47:31.782Z,13.07
2022-11-05T00:52:49.160Z,15.87
2022-11-05T00:57:54.350Z,16.97
2022-11-05T01:03:07.421Z,22.03
2022-11-05T01:08:12.754Z,19.80
2022-11-05T01:13:20.711Z,19.33
2022-11-05T01:18:28.340Z,21.37
2022-11-05T01:23:33.203Z,22.10
2022-11-05T01:28:38.810Z,22.90
2022-11-05T01:33:46.361Z,27.17
2022-11-05T01:38:51.258Z,28.43
2022-11-05T01:43:59.351Z,27.00
2022-11-05T01:49:13.529Z,23.17
2022-11-05T01:54:21.725Z,25.70
2022-11-05T01:59:32.217Z,20.10
2022-11-05T02:16:12.381Z,17.17
2022-11-05T02:21:46.887Z,15.63
2022-11-05T02:27:12.401Z,20.33
2022-11-05T02:32:32.907Z,24.43
2022-11-05T02:37:42.992Z,26.40
2022-11-05T02:42:59.128Z,25.00
2022-11-05T02:48:16.546Z,20.50
2022-11-05T02:53:27.447Z,25.30
2022-11-05T02:58:32.600Z,19.63
2022-11-05T03:03:47.102Z,20.23
2022-11-05T03:09:15.718Z,15.13
2022-11-05T03:14:27.161Z,16.97
2022-11-05T03:19:42.581Z,17.10
2022-11-05T03:24:52.241Z,12.03
2022-11-05T03:30:03.711Z,12.03
2022-11-05T03:35:17.571Z,11.07
2022-11-05T03:40:25.227Z,10.20
2022-11-05T03:45:34.668Z,9.70
2022-11-05T03:50:49.307Z,11.00
2022-11-05T03:56:00.258Z,13.63
2022-11-05T04:01:06.487Z,18.50
2022-11-05T04:06:26.576Z,23.13
2022-11-05T04:11:43.762Z,23.27
2022-11-05T04:17:01.022Z,28.43
2022-11-05T04:22:20.779Z,30.20
2022-11-05T04:27:25.801Z,29.90
2022-11-05T04:32:30.576Z,29.83
2022-11-05T04:37:39.203Z,28.77
2022-11-05T04:42:44.067Z,28.77
2022-11-05T04:47:48.930Z,27.93
2022-11-05T04:52:56.279Z,33.83
2022-11-05T04:58:01.063Z,28.73
2022-11-05T05:03:06.083Z,31.80
2022-11-05T05:08:13.509Z,36.30
2022-11-05T05:13:18.258Z,27.43
2022-11-05T05:18:25.483Z,32.23
2022-11-05T05:23:32.883Z,26.87
2022-11-05T05:28:37.828Z,30.93
2022-11-05T05:33:42.630Z,32.13
2022-11-05T05:38:50.346Z,29.00
2022-11-05T05:43:55.231Z,30.73
2022-11-05T05:49:00.679Z,29.43
2022-11-05T05:54:09.160Z,31.77
2022-11-05T05:59:14.811Z,31.57
2022-11-05T06:04:21.395Z,25.17
2022-11-05T06:09:29.133Z,33.97
2022-11-05T06:14:34.909Z,28.27
2022-11-05T06:19:43.206Z,26.90
2022-11-05T06:24:51.270Z,33.00
2022-11-05T06:29:58.551Z,30.10
2022-11-05T06:35:04.319Z,29.73
2022-11-05T06:40:13.651Z,33.90
2022-11-05T06:45:20.557Z,31.23
2022-11-05T06:50:25.799Z,30.47
2022-11-05T06:55:35.972Z,32.13
2022-11-05T07:00:40.866Z,31.97
2022-11-05T07:05:50.881Z,28.47
2022-11-05T07:10:58.296Z,28.03
2022-11-05T07:16:03.057Z,36.73
2022-11-05T07:21:08.002Z,34.80
2022-11-05T07:26:15.394Z,30.30
2022-11-05T07:31:20.357Z,32.77
2022-11-05T07:36:25.176Z,31.07
2022-11-05T07:41:33.149Z,28.23
2022-11-05T07:46:37.968Z,32.20
2022-11-05T07:51:42.793Z,32.43
2022-11-05T07:56:52.229Z,27.50
2022-11-05T08:01:57.096Z,28.57
2022-11-05T08:07:02.044Z,25.00
2022-11-05T08:12:13.312Z,27.13
2022-11-05T08:17:18.605Z,34.57
2022-11-05T08:22:23.611Z,28.23
2022-11-05T08:27:31.062Z,34.27
2022-11-05T08:32:36.053Z,24.27
2022-11-05T08:37:43.861Z,27.13
2022-11-05T08:42:51.450Z,24.33
2022-11-05T08:48:02.319Z,28.80
2022-11-05T08:53:07.692Z,22.10
2022-11-05T08:58:17.791Z,22.90
2022-11-05T09:03:22.990Z,23.00
2022-11-05T09:08:27.953Z,21.20
2022-11-05T09:13:35.674Z,24.17
2022-11-05T09:18:42.477Z,24.00
2022-11-05T09:23:47.796Z,28.77
2022-11-05T09:28:55.876Z,26.67
2022-11-05T09:34:01.114Z,29.43
2022-11-05T09:39:06.226Z,29.13
2022-11-05T09:44:19.985Z,20.67
2022-11-05T09:49:29.870Z,24.53
2022-11-05T09:54:37.110Z,23.57
2022-11-05T09:59:48.762Z,23.70
2022-11-05T10:05:00.671Z,27.87
2022-11-05T10:10:12.688Z,20.73
2022-11-05T10:15:26.336Z,18.37
2022-11-05T10:20:35.921Z,21.87
2022-11-05T10:25:44.009Z,21.43
2022-11-05T10:30:54.391Z,25.67
2022-11-05T10:36:05.795Z,16.57
2022-11-05T10:41:31.757Z,18.13
2022-11-05T10:46:45.246Z,16.60
2022-11-05T10:51:58.551Z,15.90
2022-11-05T10:57:03.480Z,15.57
2022-11-05T11:02:24.731Z,18.60
2022-11-05T11:07:30.436Z,14.40
2022-11-05T11:12:41.539Z,20.70
2022-11-05T11:17:49.780Z,19.67
2022-11-05T11:23:16.656Z,15.03
2022-11-05T11:28:30.709Z,18.57
2022-11-05T11:33:41.273Z,16.70
2022-11-05T11:38:52.387Z,14.20
2022-11-05T11:43:59.936Z,15.50
2022-11-05T11:49:10.344Z,11.47
2022-11-05T11:54:29.084Z,11.07
2022-11-05T12:00:06.677Z,14.90
2022-11-05T12:05:21.814Z,13.57
2022-11-05T12:10:49.392Z,15.40
2022-11-05T12:15:57.035Z,11.60
2022-11-05T12:21:40.754Z,9.63
2022-11-05T12:26:57.256Z,11.47
2022-11-05T12:32:26.327Z,10.40
2022-11-05T12:37:40.314Z,10.93
2022-11-05T12:42:59.548Z,18.67
2022-11-05T12:48:21.976Z,13.20
2022-11-05T12:53:46.341Z,16.57
2022-11-05T12:58:56.790Z,11.57
2022-11-05T13:04:08.108Z,10.00
2022-11-05T13:09:21.432Z,13.07
2022-11-05T13:14:31.352Z,10.53
2022-11-05T13:19:43.239Z,10.67
2022-11-05T13:24:52.749Z,16.83
2022-11-05T13:30:02.593Z,14.03
2022-11-05T13:35:16.772Z,13.73
2022-11-05T13:40:35.424Z,11.03
2022-11-05T13:46:22.367Z,11.07
2022-11-05T13:51:49.243Z,11.07
2022-11-05T13:57:14.328Z,19.60
2022-11-05T14:02:23.078Z,9.60
2022-11-05T14:07:31.175Z,8.07
2022-11-05T14:12:41.566Z,13.37
2022-11-05T14:18:02.331Z,10.23
2022-11-05T14:23:45.556Z,9.73
2022-11-05T14:29:15.499Z,14.83
2022-11-05T14:34:24.819Z,13.07
2022-11-05T14:39:31.864Z,8.17
2022-11-05T14:44:39.577Z,13.70
2022-11-05T14:49:54.616Z,16.20
2022-11-05T14:55:01.217Z,8.40
2022-11-05T15:00:33.833Z,7.63
2022-11-05T15:05:42.386Z,5.97
2022-11-05T15:10:48.518Z,10.67
2022-11-05T15:15:56.442Z,14.10
2022-11-05T15:21:04.918Z,13.20
2022-11-05T15:26:17.739Z,14.53
2022-11-05T15:31:34.228Z,11.87
2022-11-05T15:36:39.049Z,14.87
2022-11-05T15:41:43.909Z,12.73
2022-11-05T15:46:51.273Z,13.73
2022-11-05T15:51:57.479Z,10.70
2022-11-05T15:57:05.191Z,14.97
2022-11-05T16:02:28.873Z,15.07
2022-11-05T16:07:36.254Z,8.17
2022-11-05T16:12:44.435Z,10.63
2022-11-05T16:17:54.635Z,6.50
2022-11-05T16:23:01.065Z,8.93
2022-11-05T16:28:07.581Z,10.43
2022-11-05T16:33:18.470Z,14.87
2022-11-05T16:38:23.826Z,16.97
2022-11-05T16:43:29.976Z,23.13
2022-11-05T16:48:37.383Z,18.30
2022-11-05T16:53:42.159Z,18.60
2022-11-05T16:58:48.794Z,15.70
2022-11-05T17:03:57.229Z,17.10
2022-11-05T17:09:01.951Z,21.40
2022-11-05T17:14:07.129Z,17.33
2022-11-05T17:19:18.195Z,20.83
2022-11-05T17:24:23.068Z,17.53
2022-11-05T17:29:27.949Z,22.63
2022-11-05T17:34:35.978Z,28.00
2022-11-05T17:39:40.790Z,26.80
2022-11-05T17:44:46.148Z,18.70
2022-11-05T17:49:54.869Z,20.87
2022-11-05T17:55:00.050Z,19.53
2022-11-05T18:00:07.235Z,16.97
2022-11-05T18:05:22.044Z,14.50
2022-11-05T18:10:28.207Z,18.20
2022-11-05T18:15:41.174Z,19.13
2022-11-05T18:20:49.866Z,19.63
2022-11-05T18:25:56.583Z,15.87
2022-11-05T18:31:01.800Z,19.03
2022-11-05T18:36:10.890Z,18.27
2022-11-05T18:41:22.344Z,19.23
2022-11-05T18:46:55.800Z,18.60
2022-11-05T18:51:56.232Z,18.47
2022-11-05T18:57:01.187Z,18.30
2022-11-05T19:02:06.262Z,13.63
2022-11-05T19:07:16.112Z,15.87
2022-11-05T19:12:20.921Z,15.77
2022-11-05T19:17:27.386Z,16.93
2022-11-05T19:22:35.397Z,15.80
2022-11-05T19:27:41.228Z,22.23
2022-11-05T19:32:48.256Z,20.03
2022-11-05T19:37:56.209Z,27.90
2022-11-05T19:43:01.377Z,18.77
2022-11-05T19:48:12.428Z,99.87
2022-11-05T19:53:22.688Z,131.10
2022-11-05T19:58:27.773Z,66.90
2022-11-05T20:03:32.953Z,42.93
2022-11-05T20:08:59.711Z,23.63
2022-11-05T20:14:06.581Z,31.47
2022-11-05T20:19:13.849Z,16.47
2022-11-05T20:24:25.728Z,16.97
2022-11-05T20:29:35.264Z,18.53
2022-11-05T20:34:40.811Z,14.43
2022-11-05T20:39:48.457Z,18.27
2022-11-05T20:44:55.532Z,17.97
2022-11-05T20:50:06.163Z,17.83
2022-11-05T20:55:21.994Z,21.70
2022-11-05T21:00:28.448Z,18.30
2022-11-05T21:05:37.471Z,17.57
2022-11-05T21:10:51.038Z,17.63
2022-11-05T21:16:00.208Z,15.10
2022-11-05T21:21:09.038Z,15.70
2022-11-05T21:26:19.700Z,17.93
2022-11-05T21:31:25.070Z,15.77
2022-11-05T21:36:33.346Z,17.67
2022-11-05T21:41:42.814Z,18.33
2022-11-05T21:46:47.718Z,17.83
2022-11-05T21:52:04.934Z,14.80
2022-11-05T21:57:30.057Z,16.47
2022-11-05T22:02:35.296Z,16.70
2022-11-05T22:07:41.902Z,12.73
2022-11-05T22:12:49.658Z,22.67
2022-11-05T22:17:54.704Z,13.03
2022-11-05T22:22:59.557Z,16.70
2022-11-05T22:28:07.480Z,11.97
2022-11-05T22:33:12.425Z,17.13
2022-11-05T22:38:17.268Z,14.57
2022-11-05T22:43:24.854Z,16.00
2022-11-05T22:48:29.638Z,16.13
2022-11-05T22:53:34.555Z,14.60
2022-11-05T22:58:42.371Z,12.37
2022-11-05T23:03:49.222Z,15.53
2022-11-05T23:09:06.445Z,15.77
2022-11-05T23:14:16.271Z,14.80
2022-11-05T23:19:41.291Z,15.57
2022-11-05T23:24:46.136Z,14.00
2022-11-05T23:29:53.604Z,10.77
2022-11-05T23:34:59.632Z,11.37
2022-11-05T23:40:04.437Z,11.67
2022-11-05T23:45:25.999Z,11.33
2022-11-05T23:50:38.520Z,11.87
2022-11-05T23:55:47.207Z,17.63
